Main page
METAR-TAF:

METAR-TAF

Airports :

Isle of Man Airport

Isle of Man,

latitude: 54-05N, longitude: 004-38W, elevation: 17 m

Current weather observation

The report was made 24 minutes ago, at 05:20 UTC
Wind 5 kt from the West, varying between West/Southwest and West/Northwest
Temperature 14°C
Humidity 82%
Pressure 1013 hPa
Visibility 10 km or more
Few clouds at a height of 1200 ft

METAR: EGNS 170520Z 27005KT 240V300 9999 FEW012 14/11 Q1013 NOSIG

Time: 06:44 (05:44 UTC)

Forecast

The report was made 44 minutes ago, at 05:00 UTC
Forecast valid from 17 at 06 UTC to 17 at 15 UTC
Wind 7 kt from the West
Visibility 10 km or more
Few clouds at a height of 1200 ft
Scattered clouds at a height of 5000 ft
Becoming
from 17 at 09 UTC to 17 at 13 UTC
Wind 10 kt from the South/Southwest

TAF: EGNS 170500Z 1706/1715 28007KT 9999 FEW012 SCT050 BECMG 1709/1713 21010KT

Weather observations and forecasts of more than 4000 airports (METAR and TAF reports).

The available stations are represented by yellow and red dots on the map.

Hover mouse over dot to see the name of the station.

Then click to see weather observations and forecasts.

To change the map : click on the green buttons with a black cross to zoom in, on the green button with a dash to zoom out, or on the green arrows for adjacent maps.


METAR-TAF: